createdAt,value
2023-02-05T00:00:23.111Z,102556.50
2023-02-05T00:02:50.872Z,102554.91
2023-02-05T00:05:18.564Z,102554.38
2023-02-05T00:07:46.504Z,102553.84
2023-02-05T00:10:14.684Z,102559.84
2023-02-05T00:12:42.531Z,102556.44
2023-02-05T00:15:11.469Z,102558.28
2023-02-05T00:17:40.692Z,102560.75
2023-02-05T00:20:09.885Z,102554.41
2023-02-05T00:22:37.765Z,102554.41
2023-02-05T00:25:06.356Z,102549.31
2023-02-05T00:27:35.204Z,102549.34
2023-02-05T00:30:04.160Z,102546.69
2023-02-05T00:32:35.218Z,102548.31
2023-02-05T00:35:07.601Z,102541.31
2023-02-05T00:37:36.984Z,102536.94
2023-02-05T00:40:06.581Z,102542.03
2023-02-05T00:42:36.940Z,102533.53
2023-02-05T00:45:08.064Z,102537.03
2023-02-05T00:47:39.574Z,102532.03
2023-02-05T00:50:11.539Z,102530.53
2023-02-05T00:52:40.887Z,102525.78
2023-02-05T00:55:09.999Z,102522.81
2023-02-05T00:57:39.788Z,102511.09
2023-02-05T01:00:08.874Z,102521.13
2023-02-05T01:02:36.843Z,102523.47
2023-02-05T01:05:05.422Z,102520.19
2023-02-05T01:07:34.513Z,102514.31
2023-02-05T01:10:02.302Z,102505.94
2023-02-05T01:12:30.121Z,102507.84
2023-02-05T01:14:57.802Z,102508.69
2023-02-05T01:17:25.517Z,102506.94
2023-02-05T01:19:53.833Z,102503.66
2023-02-05T01:22:21.790Z,102503.69
2023-02-05T01:24:53.047Z,102504.59
2023-02-05T01:27:20.882Z,102503.84
2023-02-05T01:29:48.669Z,102501.22
2023-02-05T01:32:16.554Z,102497.75
2023-02-05T01:34:45.081Z,102493.41
2023-02-05T01:37:13.489Z,102488.31
2023-02-05T01:39:41.579Z,102492.63
2023-02-05T01:42:18.903Z,102490.16
2023-02-05T01:45:39.965Z,102492.81
2023-02-05T01:48:10.671Z,102480.81
2023-02-05T01:50:43.424Z,102475.50
2023-02-05T01:53:14.893Z,102477.19
2023-02-05T01:55:47.096Z,102480.44
2023-02-05T01:58:16.334Z,102472.81
2023-02-05T02:00:44.379Z,102459.97
2023-02-05T02:03:15.050Z,102447.28
2023-02-05T02:05:42.795Z,102444.00
2023-02-05T02:08:11.713Z,102443.94
2023-02-05T02:10:40.353Z,102437.97
2023-02-05T02:13:08.100Z,102438.72
2023-02-05T02:15:37.689Z,102443.78
2023-02-05T02:18:25.678Z,102449.69
2023-02-05T02:21:22.404Z,102441.88
2023-02-05T02:24:15.097Z,102440.22
2023-02-05T02:27:09.447Z,102439.59
2023-02-05T02:29:48.140Z,102434.44
2023-02-05T02:32:22.158Z,102441.28
2023-02-05T02:34:52.969Z,102438.84
2023-02-05T02:37:26.913Z,102426.94
2023-02-05T02:40:01.397Z,102421.06
2023-02-05T02:42:35.491Z,102415.22
2023-02-05T02:45:09.719Z,102407.69
2023-02-05T02:47:41.889Z,102404.41
2023-02-05T02:50:14.378Z,102407.94
2023-02-05T02:52:47.066Z,102394.97
2023-02-05T02:55:17.808Z,102394.88
2023-02-05T02:57:51.915Z,102401.53
2023-02-05T03:00:26.879Z,102397.16
2023-02-05T03:03:01.192Z,102401.38
2023-02-05T03:05:31.131Z,102390.38
2023-02-05T03:08:02.606Z,102382.09
2023-02-05T03:10:41.011Z,102372.88
2023-02-05T03:13:09.916Z,102370.41
2023-02-05T03:15:42.382Z,102376.50
2023-02-05T03:18:10.483Z,102372.28
2023-02-05T03:20:43.988Z,102368.91
2023-02-05T03:23:11.937Z,102362.03
2023-02-05T03:25:39.683Z,102363.78
2023-02-05T03:28:12.162Z,102361.28
2023-02-05T03:30:53.373Z,102362.22
2023-02-05T03:33:36.385Z,102366.63
2023-02-05T03:36:14.274Z,102381.94
2023-02-05T03:38:53.424Z,102382.84
2023-02-05T03:41:47.371Z,102381.88
2023-02-05T03:44:29.237Z,102369.06
2023-02-05T03:47:04.138Z,102364.88
2023-02-05T03:49:44.181Z,102354.56
2023-02-05T03:52:17.608Z,102353.91
2023-02-05T03:54:53.620Z,102357.28
2023-02-05T03:57:32.016Z,102367.56
2023-02-05T04:00:00.649Z,102361.78
2023-02-05T04:02:32.509Z,102360.97
2023-02-05T04:05:00.184Z,102366.16
2023-02-05T04:07:30.081Z,102356.59
2023-02-05T04:09:57.751Z,102351.53
2023-02-05T04:12:25.794Z,102375.50
2023-02-05T04:14:54.522Z,102382.22
2023-02-05T04:17:22.256Z,102376.94
2023-02-05T04:19:51.412Z,102383.84
2023-02-05T04:22:20.833Z,102375.28
2023-02-05T04:24:48.969Z,102370.19
2023-02-05T04:27:17.833Z,102383.06
2023-02-05T04:29:46.044Z,102379.34
2023-02-05T04:32:13.949Z,102381.22
2023-02-05T04:34:41.662Z,102375.25
2023-02-05T04:37:13.327Z,102382.13
2023-02-05T04:39:41.477Z,102393.19
2023-02-05T04:42:09.252Z,102387.16
2023-02-05T04:44:36.900Z,102388.09
2023-02-05T04:47:04.657Z,102382.06
2023-02-05T04:49:33.632Z,102371.75
2023-02-05T04:52:01.385Z,102372.72
2023-02-05T04:54:31.841Z,102373.63
2023-02-05T04:56:59.789Z,102370.22
2023-02-05T04:59:29.931Z,102358.19
2023-02-05T05:01:58.127Z,102355.63
2023-02-05T05:04:26.206Z,102361.69
2023-02-05T05:06:54.372Z,102360.88
2023-02-05T05:09:24.057Z,102369.41
2023-02-05T05:11:54.241Z,102365.13
2023-02-05T05:14:22.027Z,102355.63
2023-02-05T05:16:50.354Z,102345.41
2023-02-05T05:19:18.162Z,102347.19
2023-02-05T05:21:46.053Z,102359.34
2023-02-05T05:24:13.771Z,102366.81
2023-02-05T05:26:44.022Z,102368.56
2023-02-05T05:29:14.385Z,102367.78
2023-02-05T05:31:42.687Z,102365.03
2023-02-05T05:34:10.453Z,102370.13
2023-02-05T05:36:39.947Z,102371.84
2023-02-05T05:39:21.593Z,102373.56
2023-02-05T05:42:06.790Z,102366.00
2023-02-05T05:44:36.071Z,102367.69
2023-02-05T05:47:04.292Z,102363.41
2023-02-05T05:49:32.019Z,102360.69
2023-02-05T05:52:00.034Z,102353.13
2023-02-05T05:54:27.884Z,102358.16
2023-02-05T05:56:55.921Z,102354.69
2023-02-05T05:59:23.977Z,102358.97
2023-02-05T06:01:53.501Z,102354.56
2023-02-05T06:04:21.252Z,102353.75
2023-02-05T06:06:49.236Z,102355.59
2023-02-05T06:09:16.925Z,102355.56
2023-02-05T06:11:44.580Z,102360.69
2023-02-05T06:14:12.279Z,102366.56
2023-02-05T06:16:41.359Z,102379.53
2023-02-05T06:19:10.521Z,102376.06
2023-02-05T06:21:38.332Z,102363.25
2023-02-05T06:24:06.813Z,102367.47
2023-02-05T06:26:34.528Z,102373.38
2023-02-05T06:29:03.271Z,102373.38
2023-02-05T06:31:32.054Z,102371.59
2023-02-05T06:34:01.133Z,102365.56
2023-02-05T06:36:30.661Z,102363.88
2023-02-05T06:38:58.974Z,102361.28
2023-02-05T06:41:27.484Z,102361.25
2023-02-05T06:43:55.121Z,102359.53
2023-02-05T06:46:23.049Z,102351.78
2023-02-05T06:48:50.723Z,102342.38
2023-02-05T06:51:18.497Z,102330.31
2023-02-05T06:53:48.207Z,102326.09
2023-02-05T06:56:16.106Z,102327.84
2023-02-05T06:58:43.993Z,102335.44
2023-02-05T07:01:11.786Z,102342.28
2023-02-05T07:03:39.882Z,102339.63
2023-02-05T07:06:08.180Z,102336.03
2023-02-05T07:08:36.476Z,102337.75
2023-02-05T07:11:08.217Z,102334.34
2023-02-05T07:13:36.580Z,102341.13
2023-02-05T07:16:05.406Z,102344.44
2023-02-05T07:18:34.209Z,102346.19
2023-02-05T07:21:06.648Z,102353.13
2023-02-05T07:23:35.287Z,102342.97
2023-02-05T07:26:09.587Z,102339.47
2023-02-05T07:28:37.978Z,102329.09
2023-02-05T07:31:07.903Z,102326.53
2023-02-05T07:33:37.010Z,102321.38
2023-02-05T07:36:06.243Z,102317.09
2023-02-05T07:38:35.353Z,102319.69
2023-02-05T07:41:04.936Z,102331.72
2023-02-05T07:43:35.279Z,102331.72
2023-02-05T07:46:05.934Z,102336.00
2023-02-05T07:48:34.201Z,102319.69
2023-02-05T07:51:03.123Z,102329.97
2023-02-05T07:53:31.176Z,102324.84
2023-02-05T07:56:03.514Z,102318.16
2023-02-05T07:58:31.274Z,102327.53
2023-02-05T08:01:03.001Z,102321.53
2023-02-05T08:03:32.638Z,102323.25
2023-02-05T08:06:00.807Z,102321.59
2023-02-05T08:08:28.481Z,102313.94
2023-02-05T08:10:58.116Z,102306.41
2023-02-05T08:13:26.126Z,102304.66
2023-02-05T08:15:53.966Z,102314.94
2023-02-05T08:18:23.621Z,102312.50
2023-02-05T08:20:53.366Z,102305.50
2023-02-05T08:23:21.587Z,102306.47
2023-02-05T08:25:49.574Z,102293.50
2023-02-05T08:28:17.434Z,102294.34
2023-02-05T08:30:45.323Z,102292.72
2023-02-05T08:33:13.078Z,102287.72
2023-02-05T08:35:42.912Z,102286.78
2023-02-05T08:38:11.205Z,102288.59
2023-02-05T08:40:40.446Z,102282.69
2023-02-05T08:43:08.528Z,102286.91
2023-02-05T08:45:37.552Z,102275.72
2023-02-05T08:48:06.734Z,102271.44
2023-02-05T08:50:34.962Z,102275.81
2023-02-05T08:53:07.628Z,102274.88
2023-02-05T08:55:35.898Z,102275.72
2023-02-05T08:58:03.692Z,102277.41
2023-02-05T09:00:33.306Z,102276.53
2023-02-05T09:03:01.580Z,102277.47
2023-02-05T09:05:29.446Z,102267.22
2023-02-05T09:07:59.313Z,102265.50
2023-02-05T09:10:28.506Z,102258.88
2023-02-05T09:12:56.346Z,102263.91
2023-02-05T09:15:24.126Z,102263.91
2023-02-05T09:17:51.891Z,102269.84
2023-02-05T09:20:19.776Z,102267.28
2023-02-05T09:22:47.690Z,102273.31
2023-02-05T09:25:15.743Z,102257.00
2023-02-05T09:27:44.886Z,102260.44
2023-02-05T09:30:14.405Z,102268.19
2023-02-05T09:32:42.249Z,102255.31
2023-02-05T09:35:10.989Z,102255.31
2023-02-05T09:37:39.314Z,102250.09
2023-02-05T09:40:24.255Z,102255.16
2023-02-05T09:43:04.670Z,102244.06
2023-02-05T09:45:43.929Z,102240.69
2023-02-05T09:48:33.574Z,102235.47
2023-02-05T09:51:02.085Z,102244.13
2023-02-05T09:53:36.821Z,102234.69
2023-02-05T09:56:07.906Z,102240.66
2023-02-05T09:58:43.019Z,102237.19
2023-02-05T10:01:19.071Z,102235.38
2023-02-05T10:03:51.140Z,102234.53
2023-02-05T10:06:38.791Z,102228.63
2023-02-05T10:09:17.123Z,102226.97
2023-02-05T10:11:52.115Z,102225.28
2023-02-05T10:14:36.621Z,102224.47
2023-02-05T10:17:19.285Z,102215.88
2023-02-05T10:20:23.662Z,102213.25
2023-02-05T10:23:05.517Z,102213.44
2023-02-05T10:25:47.501Z,102207.44
2023-02-05T10:28:33.783Z,102217.72
2023-02-05T10:31:14.832Z,102204.88
2023-02-05T10:33:49.033Z,102210.81
2023-02-05T10:36:21.211Z,102201.38
2023-02-05T10:38:51.084Z,102203.06
2023-02-05T10:41:26.403Z,102197.94
2023-02-05T10:44:00.951Z,102189.41
2023-02-05T10:46:41.532Z,102185.16
2023-02-05T10:49:21.089Z,102179.19
2023-02-05T10:51:49.056Z,102174.78
2023-02-05T10:54:22.583Z,102166.31
2023-02-05T10:56:52.242Z,102162.84
2023-02-05T10:59:26.985Z,102157.75
2023-02-05T11:02:03.054Z,102148.38
2023-02-05T11:04:39.004Z,102143.28
2023-02-05T11:07:13.492Z,102141.53
2023-02-05T11:09:41.669Z,102143.31
2023-02-05T11:12:21.172Z,102141.63
2023-02-05T11:14:58.701Z,102136.50
2023-02-05T11:17:33.095Z,102128.78
2023-02-05T11:20:04.589Z,102129.59
2023-02-05T11:22:35.370Z,102127.09
2023-02-05T11:25:15.131Z,102125.47
2023-02-05T11:27:43.263Z,102122.06
2023-02-05T11:30:49.573Z,102109.22
2023-02-05T11:33:27.095Z,102108.31
2023-02-05T11:35:59.067Z,102110.88
2023-02-05T11:38:33.237Z,102112.63
2023-02-05T11:41:03.827Z,102117.81
2023-02-05T11:43:35.037Z,102112.56
2023-02-05T11:46:07.723Z,102109.19
2023-02-05T11:48:41.202Z,102102.28
2023-02-05T11:51:10.905Z,102100.56
2023-02-05T11:53:45.040Z,102107.53
2023-02-05T11:56:22.275Z,102099.84
2023-02-05T11:58:59.956Z,102108.53
2023-02-05T12:01:32.394Z,102099.91
2023-02-05T12:04:04.524Z,102099.03
2023-02-05T12:06:38.539Z,102104.19
2023-02-05T12:09:07.161Z,102099.84
2023-02-05T12:12:03.954Z,102102.47
2023-02-05T12:14:44.197Z,102091.38
2023-02-05T12:17:39.483Z,102088.72
2023-02-05T12:20:22.023Z,102089.59
2023-02-05T12:23:09.645Z,102087.88
2023-02-05T12:25:46.062Z,102078.41
2023-02-05T12:28:29.162Z,102080.13
2023-02-05T12:31:11.718Z,102077.56
2023-02-05T12:33:55.133Z,102074.94
2023-02-05T12:36:40.335Z,102075.00
2023-02-05T12:39:24.064Z,102072.47
2023-02-05T12:42:07.493Z,102062.22
2023-02-05T12:44:50.931Z,102069.94
2023-02-05T12:47:33.360Z,102065.69
2023-02-05T12:50:15.934Z,102060.59
2023-02-05T12:53:04.481Z,102062.34
2023-02-05T12:55:48.650Z,102061.50
2023-02-05T12:58:20.692Z,102055.53
2023-02-05T13:00:53.861Z,102051.25
2023-02-05T13:03:30.548Z,102058.97
2023-02-05T13:06:05.586Z,102055.50
2023-02-05T13:08:43.164Z,102052.09
2023-02-05T13:11:17.855Z,102045.25
2023-02-05T13:13:56.231Z,102053.88
2023-02-05T13:16:34.146Z,102049.59
2023-02-05T13:19:08.246Z,102059.91
2023-02-05T13:21:53.818Z,102055.59
2023-02-05T13:24:46.566Z,102047.88
2023-02-05T13:27:52.678Z,102050.44
2023-02-05T13:30:24.223Z,102055.50
2023-02-05T13:32:58.585Z,102049.50
2023-02-05T13:35:29.524Z,102052.06
2023-02-05T13:38:14.753Z,102046.94
2023-02-05T13:41:13.372Z,102047.72
2023-02-05T13:43:59.195Z,102040.00
2023-02-05T13:46:44.421Z,102038.28
2023-02-05T13:49:38.567Z,102036.59
2023-02-05T13:52:29.832Z,102033.16
2023-02-05T13:55:22.424Z,102035.78
2023-02-05T13:58:19.474Z,102036.66
2023-02-05T14:00:55.947Z,102041.81
2023-02-05T14:03:35.056Z,102040.97
2023-02-05T14:06:15.239Z,102044.41
2023-02-05T14:08:43.728Z,102044.41
2023-02-05T14:11:12.295Z,102052.13
2023-02-05T14:13:41.737Z,102043.56
2023-02-05T14:16:34.835Z,102042.69
2023-02-05T14:19:16.911Z,102040.16
2023-02-05T14:22:00.963Z,102050.44
2023-02-05T14:24:45.151Z,102050.47
2023-02-05T14:27:50.221Z,102049.63
2023-02-05T14:30:50.457Z,102060.84
2023-02-05T14:33:36.461Z,102065.13
2023-02-05T14:36:33.044Z,102065.13
2023-02-05T14:39:20.141Z,102062.56
2023-02-05T14:41:53.311Z,102061.69
2023-02-05T14:44:30.725Z,102063.41
2023-02-05T14:47:03.957Z,102066.00
2023-02-05T14:49:43.006Z,102058.25
2023-02-05T14:52:28.661Z,102063.44
2023-02-05T14:55:01.078Z,102066.91
2023-02-05T14:57:38.089Z,102074.69
2023-02-05T15:00:09.104Z,102074.66
2023-02-05T15:03:16.942Z,102074.59
2023-02-05T15:05:52.204Z,102084.03
2023-02-05T15:08:26.978Z,102092.69
2023-02-05T15:11:04.822Z,102095.25
2023-02-05T15:13:34.047Z,102103.81
2023-02-05T15:16:17.783Z,102099.50
2023-02-05T15:18:50.146Z,102102.94
2023-02-05T15:21:24.374Z,102098.66
2023-02-05T15:23:57.906Z,102104.59
2023-02-05T15:26:33.226Z,102102.06
2023-02-05T15:29:05.673Z,102116.66
2023-02-05T15:31:43.057Z,102112.31
2023-02-05T15:34:32.079Z,102116.56
2023-02-05T15:37:06.444Z,102119.16
2023-02-05T15:39:45.867Z,102118.25
2023-02-05T15:42:19.099Z,102125.97
2023-02-05T15:44:50.170Z,102122.53
2023-02-05T15:47:22.245Z,102130.34
2023-02-05T15:49:54.217Z,102128.53
2023-02-05T15:52:25.436Z,102127.72
2023-02-05T15:54:57.275Z,102137.13
2023-02-05T15:57:27.681Z,102137.19
2023-02-05T15:59:57.490Z,102141.50
2023-02-05T16:02:27.512Z,102132.84
2023-02-05T16:05:02.669Z,102144.84
2023-02-05T16:07:38.081Z,102143.16
2023-02-05T16:10:17.678Z,102157.75
2023-02-05T16:12:59.012Z,102144.91
2023-02-05T16:15:31.968Z,102155.25
2023-02-05T16:18:03.570Z,102171.50
2023-02-05T16:20:36.559Z,102169.75
2023-02-05T16:23:08.761Z,102171.50
2023-02-05T16:25:43.473Z,102172.31
2023-02-05T16:28:18.141Z,102172.31
2023-02-05T16:30:48.550Z,102176.56
2023-02-05T16:33:28.371Z,102186.84
2023-02-05T16:35:59.550Z,102193.81
2023-02-05T16:38:28.643Z,102206.63
2023-02-05T16:40:59.787Z,102203.22
2023-02-05T16:43:32.452Z,102216.75
2023-02-05T16:46:27.727Z,102222.03
2023-02-05T16:48:59.096Z,102223.69
2023-02-05T16:51:35.532Z,102240.13
2023-02-05T16:54:28.878Z,102241.03
2023-02-05T16:57:02.273Z,102246.09
2023-02-05T16:59:33.366Z,102249.69
2023-02-05T17:02:03.596Z,102242.78
2023-02-05T17:04:34.728Z,102247.69
2023-02-05T17:07:08.608Z,102256.31
2023-02-05T17:09:39.215Z,102269.09
2023-02-05T17:12:39.982Z,102258.94
2023-02-05T17:15:43.674Z,102253.69
2023-02-05T17:18:26.557Z,102250.25
2023-02-05T17:21:22.342Z,102261.47
2023-02-05T17:23:52.733Z,102272.66
2023-02-05T17:26:21.484Z,102270.06
2023-02-05T17:28:54.076Z,102278.53
2023-02-05T17:31:26.128Z,102275.13
2023-02-05T17:33:55.695Z,102281.94
2023-02-05T17:36:24.135Z,102291.34
2023-02-05T17:38:53.567Z,102292.34
2023-02-05T17:41:41.761Z,102293.41
2023-02-05T17:44:12.518Z,102299.16
2023-02-05T17:46:40.453Z,102305.13
2023-02-05T17:49:08.913Z,102306.97
2023-02-05T17:51:43.508Z,102307.69
2023-02-05T17:54:15.494Z,102304.38
2023-02-05T17:56:44.700Z,102305.34
2023-02-05T17:59:14.072Z,102314.63
2023-02-05T18:01:42.190Z,102312.94
2023-02-05T18:04:09.938Z,102307.72
2023-02-05T18:06:38.351Z,102319.69
2023-02-05T18:09:08.097Z,102311.13
2023-02-05T18:11:37.842Z,102309.38
2023-02-05T18:14:06.355Z,102322.25
2023-02-05T18:16:35.931Z,102323.94
2023-02-05T18:19:03.884Z,102331.75
2023-02-05T18:21:31.680Z,102324.13
2023-02-05T18:23:59.530Z,102338.63
2023-02-05T18:26:27.528Z,102338.59
2023-02-05T18:28:56.800Z,102336.00
2023-02-05T18:31:24.602Z,102349.69
2023-02-05T18:33:53.993Z,102348.31
2023-02-05T18:36:21.817Z,102338.31
2023-02-05T18:38:49.564Z,102351.63
2023-02-05T18:41:19.120Z,102349.84
2023-02-05T18:43:47.484Z,102359.31
2023-02-05T18:46:20.820Z,102354.19
2023-02-05T18:48:50.000Z,102360.22
2023-02-05T18:51:19.362Z,102362.56
2023-02-05T18:53:49.134Z,102355.16
2023-02-05T18:56:19.018Z,102354.41
2023-02-05T18:58:52.964Z,102357.53
2023-02-05T19:01:23.612Z,102370.63
2023-02-05T19:03:54.412Z,102374.66
2023-02-05T19:06:23.163Z,102387.47
2023-02-05T19:08:51.468Z,102378.13
2023-02-05T19:11:22.868Z,102377.56
2023-02-05T19:13:56.167Z,102374.72
2023-02-05T19:16:26.830Z,102373.78
2023-02-05T19:18:55.285Z,102387.59
2023-02-05T19:21:25.055Z,102385.81
2023-02-05T19:23:54.618Z,102373.84
2023-02-05T19:26:24.273Z,102378.19
2023-02-05T19:28:55.970Z,102379.88
2023-02-05T19:31:27.287Z,102384.94
2023-02-05T19:33:56.902Z,102396.78
2023-02-05T19:36:25.522Z,102396.03
2023-02-05T19:38:53.641Z,102401.13
2023-02-05T19:41:25.260Z,102407.09
2023-02-05T19:43:55.191Z,102402.09
2023-02-05T19:46:26.971Z,102412.50
2023-02-05T19:48:56.746Z,102416.69
2023-02-05T19:51:25.495Z,102415.66
2023-02-05T19:53:57.492Z,102417.81
2023-02-05T19:56:28.259Z,102421.97
2023-02-05T19:58:58.041Z,102428.63
2023-02-05T20:01:36.731Z,102427.09
2023-02-05T20:04:09.673Z,102421.00
2023-02-05T20:06:38.644Z,102428.75
2023-02-05T20:09:10.318Z,102432.22
2023-02-05T20:11:39.132Z,102439.81
2023-02-05T20:14:07.973Z,102439.59
2023-02-05T20:16:39.829Z,102433.50
2023-02-05T20:19:10.054Z,102428.31
2023-02-05T20:21:39.046Z,102436.16
2023-02-05T20:24:08.359Z,102435.19
2023-02-05T20:26:36.816Z,102442.22
2023-02-05T20:29:23.477Z,102444.66
2023-02-05T20:31:55.001Z,102448.28
2023-02-05T20:34:25.683Z,102463.53
2023-02-05T20:36:55.382Z,102474.78
2023-02-05T20:39:28.577Z,102473.75
2023-02-05T20:41:58.982Z,102477.44
2023-02-05T20:44:29.213Z,102478.19
2023-02-05T20:46:58.411Z,102488.50
2023-02-05T20:49:26.927Z,102483.13
2023-02-05T20:51:54.941Z,102478.28
2023-02-05T20:54:23.209Z,102489.25
2023-02-05T20:56:51.786Z,102486.50
2023-02-05T20:59:21.301Z,102495.19
2023-02-05T21:01:50.100Z,102507.19
2023-02-05T21:04:20.329Z,102494.19
2023-02-05T21:06:48.862Z,102509.50
2023-02-05T21:09:17.730Z,102509.63
2023-02-05T21:11:46.300Z,102510.28
2023-02-05T21:14:14.921Z,102514.78
2023-02-05T21:16:42.825Z,102521.53
2023-02-05T21:19:12.329Z,102520.44
2023-02-05T21:21:41.568Z,102523.81
2023-02-05T21:24:12.709Z,102517.81
2023-02-05T21:26:42.343Z,102518.13
2023-02-05T21:29:12.624Z,102519.69
2023-02-05T21:31:44.962Z,102523.03
2023-02-05T21:34:15.414Z,102522.56
2023-02-05T21:36:44.776Z,102520.38
2023-02-05T21:39:15.788Z,102529.81
2023-02-05T21:41:44.820Z,102527.78
2023-02-05T21:44:13.382Z,102547.06
2023-02-05T21:46:41.948Z,102550.22
2023-02-05T21:49:11.949Z,102555.34
2023-02-05T21:51:42.324Z,102566.38
2023-02-05T21:54:12.560Z,102564.66
2023-02-05T21:56:43.534Z,102564.63
2023-02-05T21:59:16.537Z,102570.78
2023-02-05T22:01:45.162Z,102565.53
2023-02-05T22:04:15.107Z,102570.69
2023-02-05T22:06:43.328Z,102570.59
2023-02-05T22:09:15.353Z,102575.59
2023-02-05T22:11:43.594Z,102584.38
2023-02-05T22:14:12.479Z,102580.69
2023-02-05T22:16:40.437Z,102582.44
2023-02-05T22:19:08.436Z,102588.34
2023-02-05T22:21:37.795Z,102584.94
2023-02-05T22:24:07.404Z,102599.72
2023-02-05T22:26:41.501Z,102599.34
2023-02-05T22:29:12.313Z,102607.34
2023-02-05T22:31:40.920Z,102603.84
2023-02-05T22:34:08.713Z,102609.78
2023-02-05T22:36:37.273Z,102613.97
2023-02-05T22:39:07.179Z,102614.09
2023-02-05T22:41:38.747Z,102616.53
2023-02-05T22:44:09.597Z,102627.59
2023-02-05T22:46:40.221Z,102627.75
2023-02-05T22:49:08.519Z,102629.34
2023-02-05T22:51:38.846Z,102631.34
2023-02-05T22:54:07.910Z,102626.94
2023-02-05T22:56:38.037Z,102629.41
2023-02-05T22:59:06.978Z,102626.88
2023-02-05T23:01:36.559Z,102626.88
2023-02-05T23:04:06.872Z,102618.50
2023-02-05T23:06:36.573Z,102625.25
2023-02-05T23:09:07.037Z,102626.00
2023-02-05T23:11:36.808Z,102620.88
2023-02-05T23:14:06.755Z,102632.16
2023-02-05T23:16:36.649Z,102630.44
2023-02-05T23:19:07.464Z,102630.50
2023-02-05T23:21:37.199Z,102641.50
2023-02-05T23:24:06.048Z,102631.16
2023-02-05T23:26:38.553Z,102639.75
2023-02-05T23:29:09.161Z,102650.88
2023-02-05T23:31:37.368Z,102651.84
2023-02-05T23:34:05.383Z,102656.03
2023-02-05T23:36:33.929Z,102654.41
2023-02-05T23:39:01.843Z,102648.56
2023-02-05T23:41:39.883Z,102639.03
2023-02-05T23:44:13.141Z,102655.97
2023-02-05T23:46:41.606Z,102643.13
2023-02-05T23:49:10.532Z,102639.59
2023-02-05T23:51:39.384Z,102642.09
2023-02-05T23:54:07.943Z,102643.91
2023-02-05T23:56:35.818Z,102649.00
2023-02-05T23:59:03.562Z,102652.41
